Time;durP1;ratioP1;P1;durP2;ratioP2;P2;SDS_P1;SDS_P2;PMS_P1;PMS_P2;Temp;Humidity;BMP_temperature;BMP_pressure;BME280_temperature;BME280_humidity;BME280_pressure;Samples;Min_cycle;Max_cycle;Signal;HPM_P1;HPM_P2
2022/05/28 00:00:33;;;;;;;9.82;2.00;;;10.00;99.90;;;;;;5068513;28;20103;-77
2022/05/28 00:03:03;;;;;;;7.70;1.95;;;10.00;99.90;;;;;;5068817;28;20021;-76
2022/05/28 00:05:29;;;;;;;13.85;3.03;;;10.10;99.90;;;;;;5070055;28;20012;-77
2022/05/28 00:07:57;;;;;;;5.18;1.85;;;10.10;99.90;;;;;;5068821;28;20031;-78
2022/05/28 00:10:26;;;;;;;10.68;1.70;;;10.00;99.90;;;;;;5069319;28;20036;-77
2022/05/28 00:12:52;;;;;;;8.88;2.20;;;10.10;99.90;;;;;;5068457;28;20048;-78
2022/05/28 00:15:20;;;;;;;7.43;2.40;;;10.00;99.90;;;;;;5069708;28;20021;-78
2022/05/28 00:17:47;;;;;;;6.68;2.58;;;10.10;99.90;;;;;;5069925;28;20021;-77
2022/05/28 00:20:15;;;;;;;14.77;2.03;;;10.00;99.90;;;;;;5068550;28;20020;-77
2022/05/28 00:22:43;;;;;;;11.75;2.47;;;10.00;99.90;;;;;;5068883;28;20119;-77
2022/05/28 00:25:10;;;;;;;8.50;1.98;;;10.00;99.90;;;;;;5070298;28;20086;-78
2022/05/28 00:27:37;;;;;;;9.40;1.92;;;10.10;99.90;;;;;;5069824;28;20375;-77
2022/05/28 00:30:07;;;;;;;7.47;2.03;;;10.10;99.90;;;;;;5069007;28;20516;-78
2022/05/28 00:32:33;;;;;;;11.53;1.93;;;10.20;99.90;;;;;;5069764;28;20523;-75
2022/05/28 00:34:59;;;;;;;10.57;1.70;;;10.20;99.90;;;;;;5071219;28;20290;-76
2022/05/28 00:37:27;;;;;;;14.82;2.25;;;10.20;99.90;;;;;;5068408;28;20029;-77
2022/05/28 00:39:56;;;;;;;6.15;1.60;;;10.20;99.90;;;;;;5068759;28;20021;-77
2022/05/28 00:42:22;;;;;;;8.52;1.85;;;10.10;99.90;;;;;;5069447;28;20028;-76
2022/05/28 00:44:50;;;;;;;6.88;1.88;;;10.20;99.90;;;;;;5069277;28;20024;-77
2022/05/28 00:47:17;;;;;;;5.45;1.70;;;10.10;99.90;;;;;;5069310;28;20020;-77
2022/05/28 00:49:45;;;;;;;6.15;2.13;;;10.10;99.90;;;;;;5068593;28;20031;-77
2022/05/28 00:52:13;;;;;;;11.57;1.48;;;10.00;99.90;;;;;;5069527;28;20085;-77
2022/05/28 00:54:42;;;;;;;11.65;2.55;;;10.10;99.90;;;;;;5067669;28;20025;-77
2022/05/28 00:57:09;;;;;;;3.42;1.30;;;10.10;99.90;;;;;;5067658;28;20436;-77
2022/05/28 00:59:35;;;;;;;7.78;1.73;;;10.10;99.90;;;;;;5068416;28;20448;-77
2022/05/28 01:02:19;;;;;;;6.63;1.73;;;10.10;99.90;;;;;;5069271;28;20066;-77
2022/05/28 01:04:52;;;;;;;6.60;1.58;;;10.00;99.90;;;;;;5068839;28;20079;-77
2022/05/28 01:07:26;;;;;;;8.23;1.45;;;10.00;99.90;;;;;;5067637;28;20263;-77
2022/05/28 01:10:17;;;;;;;8.73;1.92;;;9.90;99.90;;;;;;5066966;28;20251;-77
2022/05/28 01:13:20;;;;;;;8.38;1.83;;;9.90;99.90;;;;;;5067427;28;20032;-77
2022/05/28 01:16:15;;;;;;;4.40;1.85;;;9.80;99.90;;;;;;5067307;28;20028;-77
2022/05/28 01:19:29;;;;;;;6.80;1.70;;;9.70;99.90;;;;;;5067567;28;20112;-77
2022/05/28 01:22:21;;;;;;;3.30;1.17;;;9.70;99.90;;;;;;5067239;28;20067;-77
2022/05/28 01:25:13;;;;;;;1.67;1.10;;;9.70;99.90;;;;;;5067665;28;20059;-78
2022/05/28 01:27:51;;;;;;;6.43;1.17;;;9.70;99.90;;;;;;5067417;28;20025;-75
2022/05/28 01:30:22;;;;;;;4.40;1.25;;;9.60;99.90;;;;;;5066863;28;20086;-77
2022/05/28 01:32:51;;;;;;;6.00;1.27;;;9.50;99.90;;;;;;5067607;28;20108;-77
2022/05/28 01:35:20;;;;;;;4.38;1.17;;;9.40;99.90;;;;;;5067217;28;20616;-78
2022/05/28 01:37:47;;;;;;;5.18;1.38;;;9.30;99.90;;;;;;5067621;28;20021;-77
2022/05/28 01:40:14;;;;;;;2.22;1.00;;;9.30;99.90;;;;;;5070762;28;20020;-78
2022/05/28 01:42:45;;;;;;;2.65;1.17;;;9.20;99.90;;;;;;5072902;28;20063;-78
2022/05/28 01:45:17;;;;;;;3.55;1.23;;;9.10;99.90;;;;;;5071430;28;20044;-78
2022/05/28 01:47:46;;;;;;;5.53;1.40;;;9.10;99.90;;;;;;5071272;28;20112;-76
2022/05/28 01:50:14;;;;;;;4.75;1.15;;;9.10;99.90;;;;;;5071934;28;20043;-76
2022/05/28 01:52:42;;;;;;;9.50;1.52;;;9.00;99.90;;;;;;5072638;28;20152;-75
2022/05/28 01:55:10;;;;;;;4.65;1.27;;;9.00;99.90;;;;;;5071178;28;20297;-75
2022/05/28 01:57:38;;;;;;;6.70;1.70;;;9.00;99.90;;;;;;5072437;28;20074;-78
2022/05/28 02:00:05;;;;;;;6.15;1.08;;;8.90;99.90;;;;;;5070731;28;20024;-80
2022/05/28 02:02:31;;;;;;;7.57;1.88;;;8.90;99.90;;;;;;5072297;28;20025;-80
2022/05/28 02:04:57;;;;;;;5.75;1.10;;;8.90;99.90;;;;;;5071045;28;20024;-81
2022/05/28 02:07:23;;;;;;;6.75;1.42;;;8.80;99.90;;;;;;5070875;28;20069;-80
2022/05/28 02:09:58;;;;;;;7.05;1.98;;;8.80;99.90;;;;;;5070397;28;20036;-80
2022/05/28 02:13:11;;;;;;;7.82;1.92;;;8.70;99.90;;;;;;5072697;28;20025;-80
2022/05/28 02:15:54;;;;;;;10.85;2.67;;;8.80;99.90;;;;;;5035480;28;20045;-80
2022/05/28 02:18:37;;;;;;;3.30;1.35;;;8.70;99.90;;;;;;5070949;28;20024;-80
2022/05/28 02:21:10;;;;;;;3.97;2.03;;;8.70;99.90;;;;;;5072306;28;20423;-80
2022/05/28 02:24:03;;;;;;;4.30;1.63;;;8.70;99.90;;;;;;5070845;28;20474;-80
2022/05/28 02:26:35;;;;;;;6.45;1.55;;;8.60;99.90;;;;;;5070833;28;20489;-80
2022/05/28 02:29:01;;;;;;;6.25;1.88;;;8.70;99.90;;;;;;5072238;28;20432;-80
2022/05/28 02:31:30;;;;;;;5.50;1.55;;;8.70;99.90;;;;;;5070281;28;20505;-80
2022/05/28 02:33:56;;;;;;;5.03;1.70;;;8.60;99.90;;;;;;5061975;28;20029;-80
2022/05/28 02:36:23;;;;;;;10.77;1.75;;;8.50;99.90;;;;;;5060087;28;20079;-80
2022/05/28 02:38:49;;;;;;;7.10;2.15;;;8.50;99.90;;;;;;5061531;28;20079;-80
2022/05/28 02:41:15;;;;;;;6.20;1.52;;;8.60;99.90;;;;;;5057726;28;20045;-80
2022/05/28 02:43:41;;;;;;;10.30;2.15;;;8.60;99.90;;;;;;5060289;28;20427;-80
2022/05/28 02:46:08;;;;;;;6.35;2.15;;;8.60;99.90;;;;;;5061109;28;20496;-80
2022/05/28 02:48:34;;;;;;;5.68;1.90;;;8.60;99.90;;;;;;5055573;28;20029;-80
2022/05/28 02:51:12;;;;;;;12.20;2.20;;;8.60;99.90;;;;;;5058558;28;20394;-80
2022/05/28 02:53:37;;;;;;;11.20;2.50;;;8.60;99.90;;;;;;5059443;28;20021;-80
2022/05/28 02:56:04;;;;;;;6.05;2.28;;;8.60;99.90;;;;;;5058791;28;20098;-80
2022/05/28 02:58:30;;;;;;;10.88;2.03;;;8.70;99.90;;;;;;5058059;28;20059;-81
2022/05/28 03:00:56;;;;;;;6.70;2.00;;;8.70;99.90;;;;;;5058534;28;20044;-78
2022/05/28 03:03:22;;;;;;;10.25;2.47;;;8.70;99.90;;;;;;5059442;28;20025;-78
2022/05/28 03:05:49;;;;;;;8.40;2.85;;;8.70;99.90;;;;;;5057454;28;20038;-78
2022/05/28 03:08:19;;;;;;;7.75;2.20;;;8.70;99.90;;;;;;5061618;28;20021;-78
2022/05/28 03:10:47;;;;;;;8.38;2.33;;;8.70;99.90;;;;;;5058734;28;20302;-78
2022/05/28 03:13:16;;;;;;;6.22;1.95;;;8.80;99.90;;;;;;5063783;28;20440;-78
2022/05/28 03:15:42;;;;;;;8.15;2.88;;;8.70;99.90;;;;;;5062388;28;20032;-79
2022/05/28 03:18:10;;;;;;;10.13;2.35;;;8.80;99.90;;;;;;5051961;28;20025;-78
2022/05/28 03:20:38;;;;;;;10.60;1.98;;;8.80;99.90;;;;;;5049126;28;20036;-79
2022/05/28 03:23:04;;;;;;;18.10;2.45;;;8.80;99.90;;;;;;5049591;28;20120;-78
2022/05/28 03:25:30;;;;;;;11.57;2.33;;;8.80;99.90;;;;;;5049568;28;20603;-76
2022/05/28 03:27:58;;;;;;;7.85;2.38;;;8.90;99.90;;;;;;5050926;28;20025;-78
2022/05/28 03:30:24;;;;;;;9.25;2.47;;;8.90;99.90;;;;;;5059709;28;20040;-77
2022/05/28 03:32:50;;;;;;;7.18;1.92;;;9.00;99.90;;;;;;5057470;28;20563;-78
2022/05/28 03:35:16;;;;;;;7.70;2.08;;;8.90;99.90;;;;;;5063438;28;20056;-78
2022/05/28 03:37:41;;;;;;;11.18;3.47;;;8.90;99.90;;;;;;5069431;28;20040;-78
2022/05/28 03:40:07;;;;;;;17.33;2.20;;;8.90;99.90;;;;;;5070070;28;20024;-80
2022/05/28 03:42:33;;;;;;;8.30;2.20;;;9.00;99.90;;;;;;5070502;28;20027;-79
2022/05/28 03:45:01;;;;;;;11.02;2.40;;;9.00;99.90;;;;;;5070246;28;20028;-79
2022/05/28 03:47:30;;;;;;;16.10;2.20;;;9.00;99.90;;;;;;5070364;28;20115;-80
2022/05/28 03:49:56;;;;;;;11.85;2.67;;;9.00;99.90;;;;;;5069734;28;20029;-80
2022/05/28 03:52:21;;;;;;;8.80;2.00;;;9.10;99.90;;;;;;5068812;28;20241;-80
2022/05/28 03:54:47;;;;;;;11.18;2.08;;;9.10;99.90;;;;;;5068797;28;20271;-79
2022/05/28 03:57:19;;;;;;;13.80;3.05;;;9.10;99.90;;;;;;5069897;28;20074;-79
2022/05/28 03:59:45;;;;;;;8.25;2.38;;;9.10;99.90;;;;;;5067968;28;20025;-79
2022/05/28 04:02:11;;;;;;;19.45;2.97;;;9.10;99.90;;;;;;5068901;28;20100;-79
2022/05/28 04:04:37;;;;;;;6.72;2.65;;;9.00;99.90;;;;;;5069802;28;20051;-80
2022/05/28 04:07:03;;;;;;;16.85;2.80;;;9.00;99.90;;;;;;5068387;28;20451;-81
2022/05/28 04:09:29;;;;;;;7.93;3.10;;;8.90;99.90;;;;;;5068175;28;20111;-82
2022/05/28 04:11:54;;;;;;;13.30;3.35;;;9.00;99.90;;;;;;5070015;28;20028;-82
2022/05/28 04:14:19;;;;;;;13.98;2.55;;;8.90;99.90;;;;;;5069555;28;20107;-85
2022/05/28 04:16:45;;;;;;;14.77;3.35;;;9.00;99.90;;;;;;5070424;28;20039;-86
2022/05/28 04:19:11;;;;;;;6.20;2.47;;;9.00;99.90;;;;;;5069417;28;20024;-86
2022/05/28 04:21:37;;;;;;;10.40;3.10;;;9.10;99.90;;;;;;5070480;28;20077;-86
2022/05/28 04:24:04;;;;;;;12.90;3.10;;;9.10;99.90;;;;;;5071109;28;20178;-86
2022/05/28 04:26:29;;;;;;;16.98;3.47;;;9.00;99.90;;;;;;5071237;28;20032;-86
2022/05/28 04:28:55;;;;;;;11.65;3.30;;;9.00;99.90;;;;;;5070722;28;20024;-86
2022/05/28 04:31:20;;;;;;;12.65;2.95;;;9.10;99.90;;;;;;5069698;28;20046;-86
2022/05/28 04:33:46;;;;;;;21.67;4.25;;;9.00;99.90;;;;;;5068823;28;20056;-86
2022/05/28 04:36:11;;;;;;;15.32;2.75;;;9.00;99.90;;;;;;5068761;28;20050;-86
2022/05/28 04:38:37;;;;;;;13.60;3.10;;;9.00;99.90;;;;;;5069068;28;20453;-86
2022/05/28 04:41:02;;;;;;;15.80;3.55;;;9.10;99.90;;;;;;5069869;28;20078;-87
2022/05/28 04:43:28;;;;;;;17.67;3.47;;;9.20;99.90;;;;;;5070169;28;20032;-87
2022/05/28 04:45:54;;;;;;;19.65;3.65;;;9.20;99.90;;;;;;5070275;28;20044;-85
2022/05/28 04:48:19;;;;;;;17.02;4.25;;;9.30;99.90;;;;;;5068230;28;20397;-85
2022/05/28 04:50:45;;;;;;;17.58;3.15;;;9.30;99.90;;;;;;5067735;28;20021;-81
2022/05/28 04:53:10;;;;;;;10.85;3.15;;;9.30;99.90;;;;;;5069071;28;20024;-82
2022/05/28 04:55:37;;;;;;;12.50;2.83;;;9.30;99.90;;;;;;5067893;28;20039;-82
2022/05/28 04:58:04;;;;;;;12.55;3.17;;;9.30;99.90;;;;;;5067959;28;20543;-82
2022/05/28 05:00:29;;;;;;;15.90;3.47;;;9.30;99.90;;;;;;5067152;28;20112;-82
2022/05/28 05:02:55;;;;;;;15.82;3.10;;;9.30;99.90;;;;;;5067768;28;20115;-82
2022/05/28 05:05:20;;;;;;;19.75;3.85;;;9.30;99.90;;;;;;5067529;28;20025;-81
2022/05/28 05:07:46;;;;;;;22.52;3.20;;;9.30;99.90;;;;;;5069106;28;20103;-81
2022/05/28 05:10:11;;;;;;;12.75;3.28;;;9.40;99.90;;;;;;5068799;28;20128;-81
2022/05/28 05:12:38;;;;;;;13.98;3.45;;;9.50;99.90;;;;;;5069413;28;20033;-81
2022/05/28 05:15:04;;;;;;;10.25;2.60;;;9.60;99.90;;;;;;5067845;28;20390;-81
2022/05/28 05:17:29;;;;;;;10.95;3.08;;;9.70;99.90;;;;;;5069311;28;20571;-81
2022/05/28 05:19:55;;;;;;;13.15;2.53;;;9.80;99.90;;;;;;5067693;28;20016;-81
2022/05/28 05:22:20;;;;;;;12.65;3.55;;;9.90;99.90;;;;;;5069041;28;20029;-81
2022/05/28 05:24:46;;;;;;;20.48;3.88;;;10.00;99.90;;;;;;5068993;28;20035;-81
2022/05/28 05:27:12;;;;;;;19.58;4.82;;;10.10;99.90;;;;;;5067730;28;20021;-85
2022/05/28 05:29:38;;;;;;;13.63;2.78;;;10.20;99.90;;;;;;5067062;28;20016;-83
2022/05/28 05:32:04;;;;;;;20.95;3.47;;;10.20;99.90;;;;;;5069072;28;20048;-83
2022/05/28 05:34:30;;;;;;;12.52;2.65;;;10.20;99.90;;;;;;5069159;28;20029;-84
2022/05/28 05:36:56;;;;;;;13.20;2.25;;;10.20;99.90;;;;;;5068848;28;20032;-83
2022/05/28 05:39:21;;;;;;;18.50;2.88;;;10.20;99.90;;;;;;5067646;28;20436;-84
2022/05/28 05:41:47;;;;;;;11.88;2.72;;;10.20;99.90;;;;;;5068465;28;20033;-83
2022/05/28 05:44:12;;;;;;;16.63;3.00;;;10.30;99.90;;;;;;5067564;28;20020;-83
2022/05/28 05:46:40;;;;;;;14.25;3.22;;;10.30;99.90;;;;;;5067980;28;20028;-85
2022/05/28 05:49:06;;;;;;;16.73;4.10;;;10.30;99.90;;;;;;5069290;28;20099;-83
2022/05/28 05:51:33;;;;;;;10.50;2.70;;;10.40;99.90;;;;;;5067763;28;20358;-85
2022/05/28 05:53:58;;;;;;;11.15;2.38;;;10.40;99.90;;;;;;5068200;28;20027;-85
2022/05/28 05:56:24;;;;;;;14.63;2.95;;;10.40;99.90;;;;;;5068542;28;20024;-85
2022/05/28 05:58:49;;;;;;;12.40;2.80;;;10.50;99.90;;;;;;5073018;28;20036;-86
2022/05/28 06:01:15;;;;;;;15.93;2.75;;;10.50;99.90;;;;;;5062616;28;20381;-85
2022/05/28 06:03:44;;;;;;;10.50;2.40;;;10.60;99.90;;;;;;5065192;28;20033;-85
2022/05/28 06:06:13;;;;;;;15.23;2.58;;;10.50;99.90;;;;;;5083097;28;20032;-85
2022/05/28 06:08:39;;;;;;;13.07;2.88;;;10.60;99.90;;;;;;5085668;28;20031;-84
2022/05/28 06:11:04;;;;;;;12.32;3.30;;;10.60;99.90;;;;;;5073230;28;20338;-83
2022/05/28 06:13:30;;;;;;;15.75;3.42;;;10.70;99.90;;;;;;5075797;28;20081;-85
2022/05/28 06:15:56;;;;;;;10.50;2.45;;;10.60;99.90;;;;;;5065066;28;20047;-84
2022/05/28 06:18:22;;;;;;;8.48;2.50;;;10.60;99.90;;;;;;5068553;28;20469;-85
2022/05/28 06:20:49;;;;;;;16.33;3.15;;;10.70;99.90;;;;;;5065393;28;20017;-84
2022/05/28 06:23:18;;;;;;;14.05;2.90;;;10.70;99.90;;;;;;5062798;28;20116;-85
2022/05/28 06:25:43;;;;;;;8.63;2.78;;;10.80;99.90;;;;;;5062356;28;20047;-85
2022/05/28 06:28:09;;;;;;;13.07;2.72;;;10.90;99.90;;;;;;5065364;28;20417;-86
2022/05/28 06:30:34;;;;;;;16.65;2.63;;;11.00;99.90;;;;;;5061415;28;20074;-84
2022/05/28 06:33:00;;;;;;;20.52;3.78;;;11.10;99.90;;;;;;5064822;28;20021;-84
2022/05/28 06:35:26;;;;;;;14.73;2.85;;;11.10;99.90;;;;;;5062852;28;20032;-85
2022/05/28 06:37:52;;;;;;;11.57;2.83;;;11.20;99.90;;;;;;5058973;28;20498;-86
2022/05/28 06:40:18;;;;;;;14.60;3.47;;;11.20;99.90;;;;;;5065502;28;20048;-85
2022/05/28 06:42:45;;;;;;;16.90;3.15;;;11.40;99.90;;;;;;5071829;28;20294;-85
2022/05/28 06:45:16;;;;;;;12.90;2.97;;;11.40;99.90;;;;;;5070586;28;20282;-85
2022/05/28 06:47:43;;;;;;;16.38;3.28;;;11.50;99.90;;;;;;5070555;28;20032;-83
2022/05/28 06:52:54;;;;;;;15.10;2.58;;;11.60;99.90;;;;;;5071993;28;20079;-84
2022/05/28 06:55:20;;;;;;;11.55;3.00;;;11.70;99.90;;;;;;5069885;28;20533;-83
2022/05/28 06:57:45;;;;;;;16.17;3.53;;;11.80;99.90;;;;;;5071317;28;20020;-83
2022/05/28 07:00:12;;;;;;;13.95;2.85;;;11.80;99.90;;;;;;5069673;28;20485;-84
2022/05/28 07:02:37;;;;;;;9.35;3.08;;;11.90;99.90;;;;;;5070128;28;20024;-83
2022/05/28 07:05:03;;;;;;;17.75;3.58;;;12.00;99.90;;;;;;5072307;28;20039;-84
2022/05/28 07:07:28;;;;;;;18.73;4.68;;;12.20;99.90;;;;;;5069821;28;20024;-84
2022/05/28 07:09:54;;;;;;;13.50;3.40;;;12.30;99.90;;;;;;5070298;28;20016;-83
2022/05/28 07:12:19;;;;;;;9.38;2.50;;;12.30;99.90;;;;;;5071082;28;20039;-83
2022/05/28 07:14:45;;;;;;;12.15;2.75;;;12.40;99.90;;;;;;5068026;28;20108;-84
2022/05/28 07:17:10;;;;;;;20.30;3.38;;;12.50;99.90;;;;;;5066666;28;20021;-84
2022/05/28 07:19:36;;;;;;;15.00;2.90;;;12.40;99.90;;;;;;5072100;28;20020;-84
2022/05/28 07:22:02;;;;;;;12.25;3.03;;;12.40;99.90;;;;;;5075563;28;20029;-83
2022/05/28 07:24:27;;;;;;;10.73;3.30;;;12.40;99.90;;;;;;5080455;28;20488;-84
2022/05/28 07:26:53;;;;;;;8.45;3.30;;;12.40;99.90;;;;;;5067945;28;20405;-83
2022/05/28 07:29:18;;;;;;;16.42;3.08;;;12.40;99.90;;;;;;5049564;28;20520;-83
2022/05/28 07:31:45;;;;;;;14.20;2.80;;;12.30;99.90;;;;;;5049037;28;20079;-83
2022/05/28 07:34:11;;;;;;;20.95;3.88;;;12.10;99.90;;;;;;5068079;28;20055;-83
2022/05/28 07:36:37;;;;;;;13.43;3.05;;;11.90;99.90;;;;;;5063687;28;20315;-83
2022/05/28 07:39:03;;;;;;;12.35;2.88;;;11.90;99.90;;;;;;5086451;28;20072;-83
2022/05/28 07:41:29;;;;;;;14.57;3.22;;;11.90;99.90;;;;;;5073646;28;20099;-84
2022/05/28 07:43:56;;;;;;;10.13;2.45;;;11.90;99.90;;;;;;5082418;28;20025;-83
2022/05/28 07:46:28;;;;;;;15.43;2.88;;;12.00;99.90;;;;;;5071798;28;20040;-83
2022/05/28 07:48:55;;;;;;;13.07;2.67;;;11.90;99.90;;;;;;5056830;28;20038;-83
2022/05/28 07:51:21;;;;;;;11.38;2.47;;;12.00;99.90;;;;;;5071132;28;20050;-83
2022/05/28 07:53:47;;;;;;;17.40;3.63;;;12.00;99.90;;;;;;5090144;28;20465;-84
2022/05/28 07:56:13;;;;;;;9.27;2.28;;;12.00;99.90;;;;;;5088719;28;20028;-83
2022/05/28 07:58:39;;;;;;;9.02;2.75;;;12.10;99.90;;;;;;5088570;28;20024;-83
2022/05/28 08:01:06;;;;;;;12.70;2.47;;;12.30;99.90;;;;;;5071210;28;20070;-84
2022/05/28 08:03:32;;;;;;;13.30;2.90;;;12.60;99.90;;;;;;5082768;28;20443;-83
2022/05/28 08:05:58;;;;;;;11.18;3.35;;;12.80;99.90;;;;;;5070022;28;20111;-84
2022/05/28 08:08:25;;;;;;;13.13;3.13;;;12.90;99.90;;;;;;5081509;28;20174;-84
2022/05/28 08:10:52;;;;;;;11.20;2.35;;;13.50;99.90;;;;;;5088691;28;20024;-86
2022/05/28 08:13:20;;;;;;;11.85;3.45;;;14.10;99.90;;;;;;5089466;28;20035;-86
2022/05/28 08:15:47;;;;;;;11.02;2.53;;;14.60;99.90;;;;;;5089433;28;20114;-84
2022/05/28 08:18:15;;;;;;;13.25;2.83;;;15.30;99.90;;;;;;5073331;28;20477;-84
2022/05/28 08:23:25;;;;;;;10.63;2.30;;;16.60;99.90;;;;;;5090109;28;20031;-81
2022/05/28 08:25:51;;;;;;;13.25;2.55;;;16.50;99.00;;;;;;5088521;28;20028;-83
2022/05/28 08:28:19;;;;;;;12.25;2.33;;;16.60;99.40;;;;;;5088917;28;20024;-84
2022/05/28 08:30:45;;;;;;;8.75;2.60;;;16.90;97.60;;;;;;5088501;28;20020;-84
2022/05/28 08:33:13;;;;;;;7.40;2.60;;;16.70;97.80;;;;;;5090215;28;20531;-85
2022/05/28 08:35:41;;;;;;;9.13;2.42;;;16.60;97.20;;;;;;5090440;28;20047;-91
2022/05/28 08:38:13;;;;;;;10.23;2.30;;;16.90;97.80;;;;;;5090510;28;20028;-83
2022/05/28 08:40:46;;;;;;;8.77;2.55;;;17.50;97.50;;;;;;5089303;28;20024;-84
2022/05/28 08:43:14;;;;;;;16.13;3.58;;;17.40;94.20;;;;;;5088440;28;20051;-84
2022/05/28 08:45:41;;;;;;;13.25;3.78;;;16.70;95.50;;;;;;5088275;28;20617;-84
2022/05/28 08:48:06;;;;;;;10.60;3.35;;;16.40;95.80;;;;;;5087582;28;20062;-84
2022/05/28 08:50:44;;;;;;;6.55;2.50;;;16.00;96.50;;;;;;5087786;28;20059;-84
2022/05/28 08:53:17;;;;;;;10.50;3.75;;;16.60;95.60;;;;;;5087871;28;20024;-84
2022/05/28 08:55:47;;;;;;;10.32;2.40;;;17.60;95.00;;;;;;5089400;28;20020;-84
2022/05/28 08:58:15;;;;;;;13.82;2.83;;;18.90;91.50;;;;;;5088066;28;20032;-84
2022/05/28 09:01:05;;;;;;;9.55;2.53;;;19.40;87.70;;;;;;5087973;28;20083;-85
2022/05/28 09:03:48;;;;;;;8.05;2.65;;;19.30;85.10;;;;;;5087993;28;20021;-84
2022/05/28 09:06:37;;;;;;;10.35;3.17;;;19.00;87.70;;;;;;5088182;28;20027;-85
2022/05/28 09:09:03;;;;;;;10.73;2.55;;;18.90;90.00;;;;;;5088343;28;20031;-85
2022/05/28 09:11:49;;;;;;;12.38;3.38;;;18.70;86.80;;;;;;5088015;28;20069;-86
2022/05/28 09:14:30;;;;;;;7.55;2.17;;;18.40;87.70;;;;;;5087974;28;20028;-85
2022/05/28 09:17:27;;;;;;;10.65;2.88;;;18.70;90.00;;;;;;5088197;28;20027;-85
2022/05/28 09:20:05;;;;;;;7.68;2.95;;;18.90;87.50;;;;;;5085550;28;20040;-85
2022/05/28 09:22:31;;;;;;;10.52;2.63;;;18.30;89.10;;;;;;5088229;28;20457;-85
2022/05/28 09:24:57;;;;;;;7.90;3.08;;;18.10;87.20;;;;;;5090318;28;20020;-86
2022/05/28 09:27:47;;;;;;;10.75;2.95;;;18.90;88.70;;;;;;5088365;28;20337;-85
2022/05/28 09:30:36;;;;;;;5.47;2.03;;;18.80;84.30;;;;;;5089283;28;20020;-85
2022/05/28 09:33:14;;;;;;;7.07;2.65;;;18.10;84.60;;;;;;5089589;28;20035;-84
2022/05/28 09:35:42;;;;;;;13.77;2.50;;;17.10;86.80;;;;;;5088388;28;20031;-84
2022/05/28 09:38:41;;;;;;;8.85;2.42;;;16.10;90.30;;;;;;5088256;28;20024;-84
2022/05/28 09:41:23;;;;;;;6.70;2.33;;;15.50;91.90;;;;;;5087567;28;20052;-83
2022/05/28 09:44:26;;;;;;;11.98;3.38;;;15.20;93.50;;;;;;5088159;28;20046;-84
2022/05/28 09:46:52;;;;;;;7.90;2.10;;;14.90;94.60;;;;;;5087852;28;20032;-83
2022/05/28 09:49:23;;;;;;;8.52;1.92;;;14.20;96.30;;;;;;5089857;28;20028;-84
2022/05/28 09:54:16;;;;;;;9.45;2.15;;;14.10;95.70;;;;;;5102693;28;20118;-84
2022/05/28 09:55:18;;;;;;;6.03;2.55;;;14.00;96.80;;;;;;5097715;28;20032;-85
2022/05/28 09:57:45;;;;;;;;;;;14.40;99.30;;;;;;5103578;28;20058;-85
2022/05/28 10:00:12;;;;;;;6.35;2.65;;;14.50;99.90;;;;;;5105335;28;19904;-85
2022/05/28 10:04:28;;;;;;;6.45;2.20;;;14.40;99.10;;;;;;5107366;28;20025;-83
2022/05/28 10:05:33;;;;;;;8.43;2.20;;;14.20;99.90;;;;;;5107085;28;20032;-82
2022/05/28 10:08:12;;;;;;;10.20;2.15;;;14.00;99.90;;;;;;5106649;28;20186;-82
2022/05/28 10:10:40;;;;;;;8.50;2.75;;;14.00;99.90;;;;;;5107002;28;20016;-82
2022/05/28 10:13:15;;;;;;;5.18;1.70;;;14.80;99.90;;;;;;5106296;28;20456;-82
2022/05/28 10:16:11;;;;;;;8.27;1.77;;;16.10;99.90;;;;;;5104802;28;20024;-82
2022/05/28 10:21:56;;;;;;;10.13;2.33;;;17.30;96.30;;;;;;5063954;28;20037;-82
2022/05/28 10:24:25;;;;;;;6.93;2.10;;;18.60;94.20;;;;;;5115764;28;20032;-83
2022/05/28 10:27:03;;;;;;;15.43;2.90;;;19.60;92.00;;;;;;5064762;28;20020;-83
2022/05/28 10:29:57;;;;;;;7.32;2.47;;;20.30;88.50;;;;;;5064600;28;20051;-83
2022/05/28 10:32:34;;;;;;;6.95;2.25;;;21.40;86.50;;;;;;5064582;28;20021;-83
2022/05/28 10:35:03;;;;;;;7.40;2.22;;;22.30;81.50;;;;;;5081443;28;20039;-83
2022/05/28 10:37:29;;;;;;;10.15;2.50;;;22.40;76.10;;;;;;5083283;28;20028;-83
2022/05/28 10:40:30;;;;;;;6.90;2.63;;;22.40;79.10;;;;;;5083657;28;20116;-85
2022/05/28 10:43:25;;;;;;;7.45;2.70;;;22.90;74.90;;;;;;5077512;28;20146;-84
2022/05/28 10:46:05;;;;;;;7.53;2.65;;;22.90;73.90;;;;;;5082367;28;20029;-83
2022/05/28 10:48:58;;;;;;;11.65;2.20;;;21.70;73.00;;;;;;5082011;28;20400;-82
2022/05/28 10:51:56;;;;;;;8.25;2.20;;;21.10;75.60;;;;;;5082985;28;20032;-84
2022/05/28 10:54:59;;;;;;;8.63;2.67;;;21.20;76.20;;;;;;5083211;28;20056;-85
2022/05/28 10:58:11;;;;;;;14.88;3.08;;;21.90;75.00;;;;;;5084122;28;20393;-81
2022/05/28 11:00:57;;;;;;;6.95;2.65;;;22.10;73.50;;;;;;5083268;28;20040;-86
2022/05/28 11:04:09;;;;;;;9.90;2.45;;;22.70;70.40;;;;;;5083863;28;20040;-85
2022/05/28 11:07:08;;;;;;;9.55;2.55;;;21.80;71.40;;;;;;5084190;28;20032;-84
2022/05/28 11:10:06;;;;;;;7.50;2.53;;;21.70;73.50;;;;;;5066974;28;20048;-82
2022/05/28 11:12:59;;;;;;;10.70;2.80;;;21.60;69.30;;;;;;5084587;28;20028;-83
2022/05/28 11:16:02;;;;;;;8.05;2.25;;;19.70;75.20;;;;;;5085022;28;20033;-85
2022/05/28 11:19:05;;;;;;;8.57;2.70;;;17.70;87.50;;;;;;5082902;28;20108;-86
2022/05/28 11:22:20;;;;;;;10.98;2.20;;;16.60;91.10;;;;;;5084247;28;20021;-86
2022/05/28 11:25:05;;;;;;;8.90;2.55;;;16.00;93.80;;;;;;5088464;28;20008;-87
2022/05/28 11:28:20;;;;;;;6.90;2.35;;;16.80;94.70;;;;;;5092852;28;20020;-87
2022/05/28 11:30:57;;;;;;;5.30;2.00;;;18.80;92.40;;;;;;5093615;28;20020;-87
2022/05/28 11:33:40;;;;;;;6.05;2.30;;;20.40;84.70;;;;;;5086255;28;20024;-87
2022/05/28 11:36:43;;;;;;;4.80;1.88;;;20.60;80.70;;;;;;5083644;28;20024;-87
2022/05/28 11:39:22;;;;;;;4.60;1.88;;;20.50;78.90;;;;;;5092194;28;20008;-87
2022/05/28 11:42:06;;;;;;;5.82;2.35;;;21.30;75.10;;;;;;5052226;28;20124;-87
2022/05/28 11:44:41;;;;;;;5.72;2.15;;;21.90;72.60;;;;;;5064696;28;20039;-87
2022/05/28 11:47:48;;;;;;;5.65;1.75;;;22.60;68.00;;;;;;5080303;28;20035;-87
2022/05/28 11:53:44;;;;;;;7.90;2.28;;;23.10;61.80;;;;;;5064024;28;20611;-86
2022/05/28 11:56:15;;;;;;;9.90;2.67;;;23.10;61.40;;;;;;5062136;28;20044;-85
2022/05/28 11:59:12;;;;;;;9.18;2.35;;;22.60;62.40;;;;;;5077377;28;20027;-86
2022/05/28 12:02:11;;;;;;;6.35;2.13;;;22.60;63.90;;;;;;5078390;28;20314;-85
2022/05/28 12:04:58;;;;;;;10.20;2.50;;;22.40;63.10;;;;;;5063530;28;20025;-85
2022/05/28 12:07:39;;;;;;;9.88;2.28;;;22.00;62.30;;;;;;5064221;28;20490;-85
2022/05/28 12:10:11;;;;;;;4.05;1.70;;;21.60;60.70;;;;;;5071187;28;20025;-84
2022/05/28 12:13:00;;;;;;;11.20;2.17;;;21.10;60.10;;;;;;5080855;28;20041;-85
2022/05/28 12:15:30;;;;;;;5.32;1.83;;;21.10;58.60;;;;;;5083135;28;20028;-86
2022/05/28 12:18:14;;;;;;;7.90;1.70;;;20.40;57.70;;;;;;5083185;28;20024;-85
2022/05/28 12:20:58;;;;;;;7.50;1.75;;;20.10;58.20;;;;;;5082186;28;20094;-85
2022/05/28 12:23:45;;;;;;;8.02;2.08;;;19.80;59.10;;;;;;5082444;28;20024;-85
2022/05/28 12:29:34;;;;;;;8.98;2.00;;;19.50;58.60;;;;;;5083527;28;20027;-84
2022/05/28 12:32:24;;;;;;;9.80;2.10;;;19.50;63.50;;;;;;5083465;28;20052;-85
2022/05/28 12:35:02;;;;;;;5.57;2.40;;;19.20;60.00;;;;;;5082405;28;20036;-85
2022/05/28 12:37:34;;;;;;;9.13;2.75;;;19.30;62.40;;;;;;5081453;28;20151;-86
2022/05/28 12:40:13;;;;;;;9.25;2.50;;;19.00;62.00;;;;;;5079427;28;20096;-85
2022/05/28 12:42:39;;;;;;;8.38;2.20;;;18.40;64.20;;;;;;5074664;28;20255;-83
2022/05/28 12:45:32;;;;;;;11.48;2.28;;;18.20;66.00;;;;;;5069215;28;20043;-83
2022/05/28 12:48:13;;;;;;;7.25;2.38;;;18.50;68.00;;;;;;5081085;28;20048;-82
2022/05/28 12:50:59;;;;;;;7.95;2.10;;;18.90;66.00;;;;;;5082268;28;20024;-87
2022/05/28 12:53:29;;;;;;;10.98;2.25;;;18.70;65.00;;;;;;5082025;28;20016;-81
2022/05/28 12:56:40;;;;;;;10.55;2.20;;;18.10;68.40;;;;;;5080459;28;20599;-82
2022/05/28 12:59:27;;;;;;;9.10;4.50;;;17.50;72.10;;;;;;5076533;28;20025;-82
2022/05/28 13:02:18;;;;;;;7.60;1.92;;;16.90;71.50;;;;;;5061299;28;20478;-83
2022/05/28 13:04:58;;;;;;;8.18;1.70;;;16.60;72.10;;;;;;5060965;28;20329;-82
2022/05/28 13:07:42;;;;;;;11.85;2.10;;;17.00;71.10;;;;;;5061497;28;20328;-82
2022/05/28 13:10:18;;;;;;;10.70;2.00;;;17.60;72.60;;;;;;5060489;28;20021;-83
2022/05/28 13:12:56;;;;;;;7.72;1.80;;;18.00;69.50;;;;;;5059855;28;20013;-83
2022/05/28 13:15:32;;;;;;;8.50;2.20;;;18.40;65.60;;;;;;5059525;28;20032;-82
2022/05/28 13:18:19;;;;;;;6.55;2.67;;;18.20;64.40;;;;;;5059712;28;20050;-83
2022/05/28 13:21:12;;;;;;;7.72;2.00;;;17.90;63.10;;;;;;5060171;28;20025;-82
2022/05/28 13:24:18;;;;;;;5.80;1.55;;;18.30;64.80;;;;;;5060410;28;20100;-82
2022/05/28 13:27:18;;;;;;;6.95;1.50;;;18.80;65.50;;;;;;5069472;28;20025;-82
2022/05/28 13:30:05;;;;;;;5.57;2.33;;;19.10;67.30;;;;;;5080477;28;20075;-82
2022/05/28 13:32:44;;;;;;;8.40;2.20;;;19.30;62.90;;;;;;5080157;28;20020;-81